createdAt,value
2022-11-20T00:00:17.653Z,32.05
2022-11-20T00:05:17.890Z,31.93
2022-11-20T00:10:16.059Z,32.05
2022-11-20T00:15:15.229Z,32.14
2022-11-20T00:20:14.473Z,32.55
2022-11-20T00:25:15.664Z,32.76
2022-11-20T00:30:14.966Z,32.67
2022-11-20T00:35:12.992Z,32.05
2022-11-20T00:40:11.170Z,32.45
2022-11-20T00:45:10.324Z,32.15
2022-11-20T00:50:10.501Z,31.93
2022-11-20T00:55:09.686Z,32.58
2022-11-20T01:00:07.861Z,31.81
2022-11-20T01:05:07.270Z,30.16
2022-11-20T01:10:06.392Z,30.79
2022-11-20T01:15:05.531Z,30.91
2022-11-20T01:20:04.849Z,31.30
2022-11-20T01:25:04.194Z,31.32
2022-11-20T01:30:03.522Z,31.52
2022-11-20T01:35:02.834Z,32.78
2022-11-20T01:40:03.150Z,33.09
2022-11-20T01:45:00.478Z,33.00
2022-11-20T01:50:01.816Z,33.73
2022-11-20T01:54:59.137Z,35.08
2022-11-20T01:59:59.281Z,35.30
2022-11-20T02:04:58.572Z,35.71
2022-11-20T02:09:59.025Z,36.21
2022-11-20T02:14:57.210Z,36.43
2022-11-20T02:19:58.503Z,36.75
2022-11-20T02:24:55.798Z,37.07
2022-11-20T02:29:56.123Z,36.85
2022-11-20T02:34:55.426Z,37.05
2022-11-20T02:39:53.714Z,36.83
2022-11-20T02:44:54.336Z,35.11
2022-11-20T02:49:52.259Z,35.06
2022-11-20T02:54:51.448Z,36.08
2022-11-20T02:59:50.544Z,36.36
2022-11-20T03:04:49.836Z,37.19
2022-11-20T03:09:50.122Z,37.51
2022-11-20T03:14:52.844Z,37.93
2022-11-20T03:19:47.546Z,38.23
2022-11-20T03:24:46.830Z,38.01
2022-11-20T03:29:46.156Z,38.13
2022-11-20T03:34:45.452Z,38.65
2022-11-20T03:39:45.769Z,38.87
2022-11-20T03:44:44.079Z,38.87
2022-11-20T03:49:44.358Z,38.89
2022-11-20T03:54:42.660Z,37.88
2022-11-20T03:59:41.942Z,39.03
2022-11-20T04:04:42.255Z,37.78
2022-11-20T04:09:40.536Z,37.65
2022-11-20T04:14:38.850Z,37.04
2022-11-20T04:19:41.157Z,36.33
2022-11-20T04:24:38.416Z,36.55
2022-11-20T04:29:38.700Z,36.15
2022-11-20T04:34:37.986Z,36.35
2022-11-20T04:39:36.270Z,36.54
2022-11-20T04:44:36.596Z,36.74
2022-11-20T04:49:35.917Z,36.72
2022-11-20T04:54:35.223Z,36.74
2022-11-20T04:59:33.493Z,37.06
2022-11-20T05:04:31.726Z,37.18
2022-11-20T05:09:32.032Z,36.96
2022-11-20T05:14:31.409Z,37.06
2022-11-20T05:19:30.640Z,36.62
2022-11-20T05:24:28.963Z,36.74
2022-11-20T05:29:29.284Z,37.48
2022-11-20T05:34:28.591Z,37.88
2022-11-20T05:39:27.888Z,37.27
2022-11-20T05:44:27.222Z,37.36
2022-11-20T05:49:27.566Z,36.84
2022-11-20T05:54:25.880Z,36.42
2022-11-20T05:59:24.276Z,35.50
2022-11-20T06:04:24.496Z,34.27
2022-11-20T06:09:25.800Z,34.47
2022-11-20T06:14:24.078Z,34.78
2022-11-20T06:19:24.452Z,35.51
2022-11-20T06:24:24.518Z,35.83
2022-11-20T06:29:21.101Z,36.24
2022-11-20T06:34:21.006Z,36.33
2022-11-20T06:39:19.360Z,36.33
2022-11-20T06:44:18.554Z,36.76
2022-11-20T06:49:17.839Z,36.66
2022-11-20T06:54:17.115Z,37.07
2022-11-20T06:59:16.425Z,36.77
2022-11-20T07:04:16.799Z,37.31
2022-11-20T07:09:14.930Z,38.13
2022-11-20T07:14:14.082Z,37.19
2022-11-20T07:19:13.413Z,37.40
2022-11-20T07:24:12.722Z,37.07
2022-11-20T07:29:12.028Z,36.96
2022-11-20T07:34:12.331Z,36.11
2022-11-20T07:39:11.655Z,35.38
2022-11-20T07:44:09.929Z,35.08
2022-11-20T07:49:09.271Z,35.08
2022-11-20T07:54:08.406Z,35.50
2022-11-20T07:59:07.541Z,35.93
2022-11-20T08:04:06.889Z,36.76
2022-11-20T08:09:06.196Z,36.98
2022-11-20T08:14:05.500Z,36.54
2022-11-20T08:19:04.881Z,35.93
2022-11-20T08:24:04.036Z,37.90
2022-11-20T08:29:04.191Z,36.72
2022-11-20T08:34:07.717Z,38.03
2022-11-20T08:39:02.518Z,35.10
2022-11-20T08:44:00.796Z,32.62
2022-11-20T08:49:00.087Z,31.61
2022-11-20T08:53:59.382Z,29.82
2022-11-20T09:03:57.805Z,25.67
2022-11-20T09:08:56.119Z,24.67
2022-11-20T09:13:57.449Z,23.94
2022-11-20T09:19:20.313Z,26.29
2022-11-20T09:23:54.938Z,24.83
2022-11-20T09:28:58.125Z,24.89
2022-11-20T09:33:53.328Z,23.71
2022-11-20T09:38:52.656Z,23.68
2022-11-20T09:43:52.983Z,23.27
2022-11-20T09:48:51.298Z,23.37
2022-11-20T09:53:51.653Z,24.07
2022-11-20T09:58:51.778Z,23.36
2022-11-20T10:03:49.121Z,23.35
2022-11-20T10:08:50.240Z,23.15
2022-11-20T10:13:47.563Z,23.25
2022-11-20T10:18:46.878Z,22.88
2022-11-20T10:23:46.198Z,22.89
2022-11-20T10:28:52.795Z,23.03
2022-11-20T10:34:10.405Z,24.47
2022-11-20T10:38:44.798Z,24.60
2022-11-20T10:43:43.114Z,25.43
2022-11-20T10:48:42.471Z,26.67
2022-11-20T10:53:42.663Z,27.36
2022-11-20T10:58:41.763Z,28.67
2022-11-20T11:03:40.074Z,25.49
2022-11-20T11:08:41.390Z,25.38
2022-11-20T11:13:40.688Z,24.35
2022-11-20T11:18:38.980Z,24.65
2022-11-20T11:23:38.258Z,23.92
2022-11-20T11:28:36.577Z,23.21
2022-11-20T11:33:35.915Z,22.91
2022-11-20T11:38:35.027Z,22.59
2022-11-20T11:43:37.908Z,22.59
2022-11-20T11:48:33.614Z,21.79
2022-11-20T11:53:32.739Z,23.00
2022-11-20T11:58:34.325Z,23.00
2022-11-20T12:03:31.472Z,21.39
2022-11-20T12:08:30.517Z,22.39
2022-11-20T12:13:29.576Z,22.51
2022-11-20T12:18:28.895Z,21.79
2022-11-20T12:23:28.209Z,21.57
2022-11-20T12:28:27.852Z,21.69
2022-11-20T12:33:29.135Z,22.91
2022-11-20T12:38:26.105Z,21.79
2022-11-20T12:43:28.559Z,21.79
2022-11-20T12:48:26.511Z,22.31
2022-11-20T12:53:25.157Z,22.62
2022-11-20T12:58:23.123Z,22.41
2022-11-20T13:03:22.585Z,22.20
2022-11-20T13:08:22.967Z,21.98
2022-11-20T13:13:21.956Z,21.88
2022-11-20T13:18:20.966Z,22.19
2022-11-20T13:23:19.344Z,21.87
2022-11-20T13:28:19.413Z,20.60
2022-11-20T13:33:17.839Z,22.08
2022-11-20T13:38:17.298Z,22.09
2022-11-20T13:43:17.364Z,22.48
2022-11-20T13:48:15.789Z,21.56
2022-11-20T13:53:14.755Z,22.28
2022-11-20T13:58:14.389Z,22.80
2022-11-20T14:03:13.408Z,22.16
2022-11-20T14:08:12.862Z,22.67
2022-11-20T14:13:13.096Z,23.19
2022-11-20T14:18:12.932Z,22.49
2022-11-20T14:23:10.503Z,22.48
2022-11-20T14:28:09.906Z,22.27
2022-11-20T14:33:09.082Z,22.38
2022-11-20T14:38:08.305Z,22.77
2022-11-20T14:43:08.321Z,21.86
2022-11-20T14:48:06.699Z,22.67
2022-11-20T14:53:05.785Z,23.00
2022-11-20T14:58:04.840Z,23.29
2022-11-20T15:03:04.263Z,23.08
2022-11-20T15:08:03.531Z,22.67
2022-11-20T15:13:06.094Z,22.08
2022-11-20T15:18:01.875Z,22.67
2022-11-20T15:23:04.134Z,22.58
2022-11-20T15:28:01.369Z,23.00
2022-11-20T15:33:01.655Z,25.93
2022-11-20T15:37:58.245Z,24.68
2022-11-20T15:43:00.508Z,23.22
2022-11-20T15:47:57.805Z,21.86
2022-11-20T15:52:57.715Z,22.78
2022-11-20T15:57:56.075Z,24.25
2022-11-20T16:02:57.196Z,24.73
2022-11-20T16:07:55.907Z,25.44
2022-11-20T16:12:54.126Z,25.24
2022-11-20T16:17:53.353Z,25.44
2022-11-20T16:22:52.562Z,25.62
2022-11-20T16:27:52.752Z,27.22
2022-11-20T16:32:51.938Z,25.81
2022-11-20T16:37:50.096Z,25.61
2022-11-20T16:42:49.327Z,26.42
2022-11-20T16:47:50.266Z,25.48
2022-11-20T16:52:47.840Z,25.08
2022-11-20T16:57:47.161Z,25.39
2022-11-20T17:02:46.136Z,25.57
2022-11-20T17:07:46.705Z,25.27
2022-11-20T17:12:45.967Z,25.49
2022-11-20T17:17:44.127Z,26.15
2022-11-20T17:22:43.234Z,26.24
2022-11-20T17:27:43.632Z,24.71
2022-11-20T17:32:41.778Z,24.21
2022-11-20T17:37:40.638Z,25.21
2022-11-20T17:42:40.197Z,25.90
2022-11-20T17:47:40.325Z,26.29
2022-11-20T17:52:38.659Z,25.18
2022-11-20T17:57:38.868Z,24.87
2022-11-20T18:02:40.861Z,25.27
2022-11-20T18:07:41.489Z,24.17
2022-11-20T18:12:35.380Z,24.55
2022-11-20T18:17:34.577Z,24.64
2022-11-20T18:22:33.333Z,24.24
2022-11-20T18:27:32.813Z,22.78
2022-11-20T18:32:32.298Z,24.77
2022-11-20T18:37:35.303Z,22.56
2022-11-20T18:42:31.653Z,24.23
2022-11-20T18:47:33.045Z,24.22
2022-11-20T18:52:29.264Z,25.02
2022-11-20T18:57:29.473Z,24.86
2022-11-20T19:02:28.698Z,24.87
2022-11-20T19:07:26.928Z,25.48
2022-11-20T19:12:26.184Z,23.97
2022-11-20T19:17:25.416Z,24.00
2022-11-20T19:22:25.575Z,24.11
2022-11-20T19:27:24.002Z,23.20
2022-11-20T19:32:23.232Z,23.58
2022-11-20T19:37:24.453Z,23.29
2022-11-20T19:42:21.635Z,24.76
2022-11-20T19:47:20.899Z,23.40
2022-11-20T19:52:21.740Z,25.01
2022-11-20T19:57:19.249Z,24.64
2022-11-20T20:02:18.457Z,25.46
2022-11-20T20:07:17.710Z,25.66
2022-11-20T20:12:17.935Z,25.03
2022-11-20T20:17:17.170Z,24.00
2022-11-20T20:22:16.033Z,24.23
2022-11-20T20:27:14.651Z,24.67
2022-11-20T20:32:13.967Z,24.54
2022-11-20T20:37:17.790Z,24.85
2022-11-20T20:42:12.402Z,25.13
2022-11-20T20:47:10.239Z,24.93
2022-11-20T20:52:11.175Z,24.34
2022-11-20T20:57:12.136Z,26.66
2022-11-20T21:02:10.324Z,27.08
2022-11-20T21:07:08.238Z,26.13
2022-11-20T21:12:07.502Z,26.04
2022-11-20T21:17:10.764Z,25.43
2022-11-20T21:22:06.356Z,25.43
2022-11-20T21:27:06.219Z,25.92
2022-11-20T21:32:05.388Z,25.20
2022-11-20T21:37:03.571Z,25.57
2022-11-20T21:42:03.010Z,24.58
2022-11-20T21:47:02.021Z,24.84
2022-11-20T21:52:01.200Z,24.17
2022-11-20T21:57:00.400Z,24.37
2022-11-20T22:01:59.836Z,25.77
2022-11-20T22:07:01.746Z,25.37
2022-11-20T22:11:58.155Z,26.77
2022-11-20T22:16:57.368Z,27.09
2022-11-20T22:21:56.566Z,27.90
2022-11-20T22:26:55.750Z,27.59
2022-11-20T22:31:54.937Z,27.48
2022-11-20T22:36:54.106Z,26.13
2022-11-20T22:41:53.281Z,25.79
2022-11-20T22:46:52.477Z,24.62
2022-11-20T22:51:51.678Z,25.23
2022-11-20T22:56:51.886Z,25.49
2022-11-20T23:01:52.132Z,24.51
2022-11-20T23:06:50.442Z,24.69
2022-11-20T23:11:48.555Z,25.29
2022-11-20T23:16:47.732Z,25.81
2022-11-20T23:21:47.982Z,26.03
2022-11-20T23:26:48.147Z,26.76
2022-11-20T23:31:45.304Z,27.24
2022-11-20T23:36:45.471Z,26.54
2022-11-20T23:41:44.650Z,25.60
2022-11-20T23:46:42.797Z,25.99
2022-11-20T23:51:41.982Z,25.17
2022-11-20T23:56:41.206Z,24.76
